createdAt,value
2022-12-27T00:01:30.850Z,3.15
2022-12-27T00:03:57.401Z,3.12
2022-12-27T00:06:26.138Z,3.11
2022-12-27T00:08:53.144Z,3.07
2022-12-27T00:11:22.857Z,3.06
2022-12-27T00:13:49.769Z,3.05
2022-12-27T00:16:19.104Z,3.05
2022-12-27T00:18:46.562Z,3.04
2022-12-27T00:21:14.071Z,3.04
2022-12-27T00:23:45.070Z,3.01
2022-12-27T00:26:14.714Z,2.99
2022-12-27T00:28:41.239Z,2.99
2022-12-27T00:31:08.420Z,2.94
2022-12-27T00:33:36.716Z,2.94
2022-12-27T00:36:05.262Z,2.93
2022-12-27T00:38:32.556Z,2.92
2022-12-27T00:40:59.729Z,2.88
2022-12-27T00:43:26.431Z,2.86
2022-12-27T00:45:53.496Z,2.87
2022-12-27T00:48:19.956Z,2.85
2022-12-27T00:50:47.131Z,2.85
2022-12-27T00:53:14.403Z,2.87
2022-12-27T00:55:45.091Z,2.87
2022-12-27T00:58:11.730Z,2.88
2022-12-27T01:00:38.167Z,2.87
2022-12-27T01:03:04.545Z,2.89
2022-12-27T01:05:31.053Z,2.87
2022-12-27T01:07:57.463Z,2.87
2022-12-27T01:10:24.584Z,2.87
2022-12-27T01:12:50.964Z,2.88
2022-12-27T01:15:17.401Z,2.87
2022-12-27T01:17:43.786Z,2.87
2022-12-27T01:20:10.533Z,2.83
2022-12-27T01:22:36.970Z,2.83
2022-12-27T01:25:03.709Z,2.82
2022-12-27T01:27:30.089Z,2.84
2022-12-27T01:29:56.518Z,2.85
2022-12-27T01:32:22.945Z,2.88
2022-12-27T01:34:50.903Z,2.89
2022-12-27T01:37:17.324Z,2.89
2022-12-27T01:39:43.707Z,2.90
2022-12-27T01:42:35.598Z,2.90
2022-12-27T01:45:02.673Z,2.85
2022-12-27T01:47:54.611Z,2.87
2022-12-27T01:50:24.004Z,2.87
2022-12-27T01:53:21.473Z,2.85
2022-12-27T01:56:20.559Z,2.84
2022-12-27T01:58:55.844Z,2.83
2022-12-27T02:01:28.887Z,2.83
2022-12-27T02:04:09.041Z,2.84
2022-12-27T02:06:38.449Z,2.83
2022-12-27T02:09:23.059Z,2.82
2022-12-27T02:11:56.330Z,2.80
2022-12-27T02:14:33.299Z,2.77
2022-12-27T02:17:03.115Z,2.75
2022-12-27T02:19:41.412Z,2.73
2022-12-27T02:22:19.917Z,2.72
2022-12-27T02:25:12.867Z,2.69
2022-12-27T02:27:57.307Z,2.68
2022-12-27T02:30:24.225Z,2.69
2022-12-27T02:33:03.353Z,2.69
2022-12-27T02:35:53.899Z,2.68
2022-12-27T02:38:34.970Z,2.66
2022-12-27T02:41:22.827Z,2.67
2022-12-27T02:44:07.656Z,2.66
2022-12-27T02:46:53.107Z,2.64
2022-12-27T02:49:45.805Z,2.66
2022-12-27T02:52:50.551Z,2.64
2022-12-27T02:55:35.911Z,2.60
2022-12-27T02:58:59.964Z,2.60
2022-12-27T03:02:06.429Z,2.63
2022-12-27T03:04:57.653Z,2.62
2022-12-27T03:07:42.861Z,2.64
2022-12-27T03:11:00.668Z,2.66
2022-12-27T03:14:01.222Z,2.67
2022-12-27T03:16:57.980Z,2.66
2022-12-27T03:20:09.330Z,2.66
2022-12-27T03:22:57.954Z,2.67
2022-12-27T03:25:28.689Z,2.67
2022-12-27T03:28:28.765Z,2.69
2022-12-27T03:31:21.157Z,2.68
2022-12-27T03:33:50.197Z,2.67
2022-12-27T03:36:40.493Z,2.66
2022-12-27T03:39:16.565Z,2.65
2022-12-27T03:42:09.503Z,2.64
2022-12-27T03:44:36.044Z,2.63
2022-12-27T03:47:12.688Z,2.62
2022-12-27T03:49:45.198Z,2.62
2022-12-27T03:52:23.827Z,2.60
2022-12-27T03:54:51.884Z,2.60
2022-12-27T03:57:21.535Z,2.59
2022-12-27T03:59:47.980Z,2.58
2022-12-27T04:02:14.759Z,2.59
2022-12-27T04:04:41.580Z,2.61
2022-12-27T04:07:08.053Z,2.58
2022-12-27T04:09:52.868Z,2.58
2022-12-27T04:12:37.919Z,2.56
2022-12-27T04:15:23.793Z,2.55
2022-12-27T04:18:08.963Z,2.54
2022-12-27T04:20:53.755Z,2.50
2022-12-27T04:23:38.631Z,2.51
2022-12-27T04:26:23.673Z,2.48
2022-12-27T04:29:09.038Z,2.48
2022-12-27T04:31:53.915Z,2.47
2022-12-27T04:34:39.076Z,2.47
2022-12-27T04:37:06.047Z,2.46
2022-12-27T04:39:32.618Z,2.44
2022-12-27T04:42:17.647Z,2.42
2022-12-27T04:45:02.527Z,2.40
2022-12-27T04:47:47.789Z,2.39
2022-12-27T04:50:53.332Z,2.35
2022-12-27T04:53:40.162Z,2.35
2022-12-27T04:56:07.219Z,2.33
2022-12-27T04:58:34.642Z,2.35
2022-12-27T05:01:21.861Z,2.35
2022-12-27T05:03:50.796Z,2.37
2022-12-27T05:06:18.701Z,2.41
2022-12-27T05:09:04.047Z,2.43
2022-12-27T05:11:49.300Z,2.46
2022-12-27T05:14:15.942Z,2.49
2022-12-27T05:16:44.220Z,2.50
2022-12-27T05:19:12.953Z,2.52
2022-12-27T05:22:03.081Z,2.52
2022-12-27T05:24:48.776Z,2.52
2022-12-27T05:27:15.702Z,2.50
2022-12-27T05:29:42.139Z,2.50
2022-12-27T05:32:13.082Z,2.50
2022-12-27T05:34:40.260Z,2.51
2022-12-27T05:37:06.662Z,2.51
2022-12-27T05:39:33.103Z,2.51
2022-12-27T05:41:59.457Z,2.51
2022-12-27T05:44:25.861Z,2.48
2022-12-27T05:46:54.149Z,2.49
2022-12-27T05:49:20.616Z,2.47
2022-12-27T05:51:47.210Z,2.49
2022-12-27T05:54:13.608Z,2.49
2022-12-27T05:56:40.033Z,2.48
2022-12-27T05:59:08.048Z,2.50
2022-12-27T06:01:34.764Z,2.49
2022-12-27T06:04:01.254Z,2.48
2022-12-27T06:06:28.835Z,2.45
2022-12-27T06:08:55.252Z,2.47
2022-12-27T06:11:21.682Z,2.45
2022-12-27T06:13:51.368Z,2.48
2022-12-27T06:16:19.056Z,2.49
2022-12-27T06:18:45.601Z,2.49
2022-12-27T06:21:20.691Z,2.52
2022-12-27T06:23:48.139Z,2.54
2022-12-27T06:26:20.944Z,2.55
2022-12-27T06:28:49.578Z,2.55
2022-12-27T06:31:17.246Z,2.53
2022-12-27T06:33:43.655Z,2.50
2022-12-27T06:36:12.907Z,2.53
2022-12-27T06:38:40.001Z,2.55
2022-12-27T06:41:09.488Z,2.58
2022-12-27T06:43:36.183Z,2.59
2022-12-27T06:46:06.076Z,2.61
2022-12-27T06:48:32.937Z,2.61
2022-12-27T06:50:59.689Z,2.58
2022-12-27T06:53:27.197Z,2.57
2022-12-27T06:55:53.642Z,2.58
2022-12-27T06:58:20.070Z,2.58
2022-12-27T07:00:46.609Z,2.59
2022-12-27T07:03:13.130Z,2.62
2022-12-27T07:05:39.599Z,2.66
2022-12-27T07:08:06.317Z,2.67
2022-12-27T07:10:32.712Z,2.68
2022-12-27T07:12:59.366Z,2.67
2022-12-27T07:15:25.818Z,2.67
2022-12-27T07:17:52.278Z,2.68
2022-12-27T07:20:18.802Z,2.67
2022-12-27T07:22:45.235Z,2.65
2022-12-27T07:25:11.691Z,2.64
2022-12-27T07:27:38.172Z,2.63
2022-12-27T07:30:05.511Z,2.64
2022-12-27T07:32:32.028Z,2.62
2022-12-27T07:34:58.390Z,2.63
2022-12-27T07:37:24.814Z,2.64
2022-12-27T07:39:51.212Z,2.63
2022-12-27T07:42:17.659Z,2.63
2022-12-27T07:44:44.011Z,2.64
2022-12-27T07:47:10.499Z,2.65
2022-12-27T07:49:36.919Z,2.63
2022-12-27T07:52:03.393Z,2.64
2022-12-27T07:54:29.765Z,2.64
2022-12-27T07:56:56.141Z,2.65
2022-12-27T07:59:22.496Z,2.65
2022-12-27T08:02:07.302Z,2.65
2022-12-27T08:04:37.060Z,2.69
2022-12-27T08:07:08.440Z,2.74
2022-12-27T08:09:38.725Z,2.81
2022-12-27T08:12:05.998Z,2.84
2022-12-27T08:14:32.545Z,2.88
2022-12-27T08:17:04.745Z,2.92
2022-12-27T08:19:31.320Z,2.94
2022-12-27T08:21:57.710Z,2.98
2022-12-27T08:24:24.879Z,3.01
2022-12-27T08:26:51.259Z,3.05
2022-12-27T08:29:17.625Z,3.07
2022-12-27T08:31:44.072Z,3.09
2022-12-27T08:34:10.449Z,3.14
2022-12-27T08:36:54.833Z,3.20
2022-12-27T08:39:21.873Z,3.26
2022-12-27T08:41:48.364Z,3.31
2022-12-27T08:44:15.367Z,3.36
2022-12-27T08:46:41.818Z,3.41
2022-12-27T08:49:08.228Z,3.46
2022-12-27T08:51:40.689Z,3.47
2022-12-27T08:54:07.932Z,3.50
2022-12-27T08:56:34.348Z,3.53
2022-12-27T08:59:00.865Z,3.54
2022-12-27T09:01:27.588Z,3.57
2022-12-27T09:03:54.113Z,3.60
2022-12-27T09:06:23.082Z,3.65
2022-12-27T09:08:50.851Z,3.70
2022-12-27T09:11:23.810Z,3.77
2022-12-27T09:13:50.560Z,3.84
2022-12-27T09:16:20.574Z,3.92
2022-12-27T09:18:50.357Z,3.98
2022-12-27T09:21:18.288Z,4.06
2022-12-27T09:23:45.542Z,4.14
2022-12-27T09:26:29.140Z,4.22
2022-12-27T09:28:56.635Z,4.29
2022-12-27T09:31:24.690Z,4.38
2022-12-27T09:33:52.479Z,4.49
2022-12-27T09:36:22.081Z,4.56
2022-12-27T09:38:49.871Z,4.66
2022-12-27T09:44:52.654Z,4.88
2022-12-27T09:47:28.398Z,5.01
2022-12-27T09:50:03.433Z,5.20
2022-12-27T09:52:41.900Z,5.45
2022-12-27T09:55:32.851Z,5.70
2022-12-27T09:58:15.984Z,6.01
2022-12-27T10:00:46.378Z,6.40
2022-12-27T10:03:13.197Z,6.79
2022-12-27T10:05:42.196Z,7.16
2022-12-27T10:08:42.706Z,7.70
2022-12-27T10:11:37.541Z,8.18
2022-12-27T10:14:13.152Z,8.66
2022-12-27T10:16:48.609Z,8.87
2022-12-27T10:19:20.883Z,8.98
2022-12-27T10:22:01.044Z,9.12
2022-12-27T10:24:39.732Z,9.01
2022-12-27T10:27:20.705Z,9.10
2022-12-27T10:29:48.792Z,9.37
2022-12-27T10:32:16.126Z,9.37
2022-12-27T10:34:42.688Z,9.59
2022-12-27T10:37:15.667Z,10.03
2022-12-27T10:39:42.917Z,10.27
2022-12-27T10:42:35.516Z,10.27
2022-12-27T10:45:30.169Z,10.45
2022-12-27T10:48:00.150Z,10.73
2022-12-27T10:50:29.294Z,10.84
2022-12-27T10:52:57.641Z,10.89
2022-12-27T10:55:38.126Z,10.87
2022-12-27T10:58:26.470Z,10.85
2022-12-27T11:00:55.203Z,11.10
2022-12-27T11:03:22.072Z,11.26
2022-12-27T11:06:00.728Z,11.23
2022-12-27T11:08:27.429Z,11.14
2022-12-27T11:11:12.765Z,11.44
2022-12-27T11:13:39.892Z,11.52
2022-12-27T11:16:13.229Z,11.82
2022-12-27T11:18:46.542Z,12.41
2022-12-27T11:21:23.899Z,12.30
2022-12-27T11:23:56.784Z,12.07
2022-12-27T11:26:30.660Z,12.37
2022-12-27T11:29:00.471Z,12.75
2022-12-27T11:31:40.361Z,12.75
2022-12-27T11:34:15.279Z,13.16
2022-12-27T11:36:45.475Z,13.45
2022-12-27T11:39:44.496Z,13.90
2022-12-27T11:42:21.799Z,13.93
2022-12-27T11:45:04.811Z,14.31
2022-12-27T11:47:45.150Z,14.05
2022-12-27T11:50:24.576Z,13.65
2022-12-27T11:53:28.578Z,13.15
2022-12-27T11:56:24.153Z,13.61
2022-12-27T11:59:20.876Z,13.95
2022-12-27T12:01:53.402Z,13.99
2022-12-27T12:04:41.818Z,13.94
2022-12-27T12:07:20.340Z,13.96
2022-12-27T12:10:05.401Z,13.98
2022-12-27T12:13:15.752Z,14.11
2022-12-27T12:15:55.597Z,14.62
2022-12-27T12:18:45.276Z,14.30
2022-12-27T12:21:34.850Z,14.08
2022-12-27T12:24:03.962Z,14.20
2022-12-27T12:26:56.100Z,14.14
2022-12-27T12:29:37.602Z,13.76
2022-12-27T12:32:45.418Z,13.48
2022-12-27T12:35:32.971Z,13.30
2022-12-27T12:38:05.600Z,13.81
2022-12-27T12:41:01.437Z,13.83
2022-12-27T12:44:00.110Z,13.95
2022-12-27T12:46:36.606Z,14.19
2022-12-27T12:49:24.134Z,14.72
2022-12-27T12:52:23.613Z,14.73
2022-12-27T12:55:19.744Z,14.79
2022-12-27T12:58:06.546Z,14.54
2022-12-27T13:01:27.303Z,15.11
2022-12-27T13:04:10.773Z,14.95
2022-12-27T13:07:17.881Z,14.72
2022-12-27T13:09:44.326Z,14.71
2022-12-27T13:12:18.513Z,14.28
2022-12-27T13:15:23.345Z,13.78
2022-12-27T13:18:03.412Z,13.61
2022-12-27T13:20:36.012Z,13.09
2022-12-27T13:23:12.258Z,12.65
2022-12-27T13:25:53.767Z,12.31
2022-12-27T13:28:51.140Z,11.88
2022-12-27T13:31:29.682Z,11.57
2022-12-27T13:34:26.675Z,11.27
2022-12-27T13:37:29.779Z,10.90
2022-12-27T13:40:16.673Z,10.49
2022-12-27T13:43:10.987Z,10.35
2022-12-27T13:45:43.310Z,10.21
2022-12-27T13:48:16.264Z,10.18
2022-12-27T13:50:48.486Z,10.22
2022-12-27T13:53:27.374Z,10.38
2022-12-27T13:56:52.729Z,10.57
2022-12-27T13:59:42.313Z,10.89
2022-12-27T14:02:23.149Z,11.29
2022-12-27T14:05:01.859Z,11.61
2022-12-27T14:07:40.760Z,11.87
2022-12-27T14:10:19.430Z,11.89
2022-12-27T14:13:12.763Z,11.99
2022-12-27T14:15:57.979Z,12.02
2022-12-27T14:18:44.489Z,11.84
2022-12-27T14:21:19.788Z,11.84
2022-12-27T14:24:20.737Z,11.90
2022-12-27T14:27:21.079Z,11.92
2022-12-27T14:30:06.322Z,11.78
2022-12-27T14:33:03.357Z,11.70
2022-12-27T14:35:38.956Z,11.67
2022-12-27T14:38:29.290Z,11.56
2022-12-27T14:41:20.710Z,11.59
2022-12-27T14:44:25.229Z,11.49
2022-12-27T14:47:19.393Z,11.52
2022-12-27T14:49:51.751Z,11.35
2022-12-27T14:52:55.864Z,11.32
2022-12-27T14:55:35.918Z,11.18
2022-12-27T14:58:04.921Z,11.05
2022-12-27T15:00:53.339Z,10.83
2022-12-27T15:03:41.459Z,10.62
2022-12-27T15:06:40.077Z,10.23
2022-12-27T15:09:27.911Z,10.10
2022-12-27T15:12:21.833Z,9.93
2022-12-27T15:15:01.170Z,9.72
2022-12-27T15:17:39.442Z,9.57
2022-12-27T15:20:20.614Z,9.34
2022-12-27T15:22:49.824Z,9.19
2022-12-27T15:25:35.241Z,9.09
2022-12-27T15:28:17.061Z,8.98
2022-12-27T15:31:20.710Z,8.80
2022-12-27T15:34:08.659Z,8.65
2022-12-27T15:36:47.049Z,8.55
2022-12-27T15:39:32.268Z,8.44
2022-12-27T15:42:02.623Z,8.38
2022-12-27T15:44:43.185Z,8.30
2022-12-27T15:47:39.141Z,8.12
2022-12-27T15:50:28.999Z,8.02
2022-12-27T15:53:25.308Z,7.98
2022-12-27T15:56:08.693Z,7.91
2022-12-27T15:58:35.371Z,7.89
2022-12-27T16:01:22.116Z,7.80
2022-12-27T16:03:53.251Z,7.84
2022-12-27T16:06:34.628Z,7.82
2022-12-27T16:09:23.234Z,7.81
2022-12-27T16:12:01.985Z,7.79
2022-12-27T16:14:40.616Z,7.74
2022-12-27T16:17:31.222Z,7.65
2022-12-27T16:20:21.323Z,7.60
2022-12-27T16:22:50.846Z,7.56
2022-12-27T16:25:37.117Z,7.51
2022-12-27T16:28:07.775Z,7.47
2022-12-27T16:30:55.511Z,7.44
2022-12-27T16:33:33.441Z,7.37
2022-12-27T16:36:11.858Z,7.33
2022-12-27T16:39:04.619Z,7.30
2022-12-27T16:41:54.551Z,7.27
2022-12-27T16:44:23.700Z,7.25
2022-12-27T16:46:56.410Z,7.26
2022-12-27T16:49:28.778Z,7.23
2022-12-27T16:52:13.281Z,7.20
2022-12-27T16:55:08.184Z,7.17
2022-12-27T16:57:42.007Z,7.05
2022-12-27T17:00:08.468Z,7.03
2022-12-27T17:02:39.837Z,7.05
2022-12-27T17:05:15.236Z,7.00
2022-12-27T17:08:09.466Z,6.99
2022-12-27T17:10:50.856Z,6.91
2022-12-27T17:13:27.901Z,6.89
2022-12-27T17:16:12.665Z,6.90
2022-12-27T17:18:50.603Z,6.88
2022-12-27T17:21:30.948Z,6.87
2022-12-27T17:24:00.321Z,6.84
2022-12-27T17:26:47.001Z,6.81
2022-12-27T17:29:51.360Z,6.77
2022-12-27T17:32:51.823Z,6.74
2022-12-27T17:35:42.945Z,6.72
2022-12-27T17:38:44.433Z,6.65
2022-12-27T17:41:52.281Z,6.56
2022-12-27T17:44:37.990Z,6.48
2022-12-27T17:47:31.203Z,6.39
2022-12-27T17:50:14.403Z,6.29
2022-12-27T17:52:59.526Z,6.21
2022-12-27T17:55:47.592Z,6.12
2022-12-27T17:58:16.376Z,6.02
2022-12-27T18:00:57.204Z,5.95
2022-12-27T18:03:32.723Z,5.88
2022-12-27T18:05:59.225Z,5.83
2022-12-27T18:08:29.464Z,5.78
2022-12-27T18:11:01.467Z,5.71
2022-12-27T18:13:33.166Z,5.64
2022-12-27T18:16:05.568Z,5.59
2022-12-27T18:18:34.169Z,5.52
2022-12-27T18:21:05.807Z,5.47
2022-12-27T18:23:43.088Z,5.40
2022-12-27T18:26:13.447Z,5.35
2022-12-27T18:28:41.492Z,5.29
2022-12-27T18:31:35.281Z,5.23
2022-12-27T18:34:23.462Z,5.18
2022-12-27T18:37:00.884Z,5.13
2022-12-27T18:39:33.906Z,5.12
2022-12-27T18:42:11.922Z,5.15
2022-12-27T18:44:46.344Z,5.16
2022-12-27T18:47:27.232Z,5.15
2022-12-27T18:50:01.023Z,5.10
2022-12-27T18:52:34.702Z,5.00
2022-12-27T18:55:14.338Z,4.96
2022-12-27T18:57:40.977Z,4.94
2022-12-27T19:00:13.675Z,4.93
2022-12-27T19:02:42.175Z,4.92
2022-12-27T19:05:17.309Z,4.91
2022-12-27T19:07:43.836Z,4.88
2022-12-27T19:10:20.683Z,4.85
2022-12-27T19:12:47.632Z,4.81
2022-12-27T19:15:24.869Z,4.82
2022-12-27T19:17:55.082Z,4.78
2022-12-27T19:20:34.662Z,4.78
2022-12-27T19:23:05.054Z,4.78
2022-12-27T19:25:37.495Z,4.81
2022-12-27T19:28:09.961Z,4.80
2022-12-27T19:30:42.037Z,4.81
2022-12-27T19:33:15.329Z,4.82
2022-12-27T19:35:42.695Z,4.78
2022-12-27T19:38:20.638Z,4.74
2022-12-27T19:40:50.622Z,4.73
2022-12-27T19:43:18.086Z,4.72
2022-12-27T19:45:44.542Z,4.71
2022-12-27T19:48:11.540Z,4.71
2022-12-27T19:50:43.157Z,4.69
2022-12-27T19:53:15.363Z,4.64
2022-12-27T19:55:41.929Z,4.59
2022-12-27T19:58:27.846Z,4.56
2022-12-27T20:00:55.393Z,4.55
2022-12-27T20:03:21.887Z,4.53
2022-12-27T20:06:12.669Z,4.52
2022-12-27T20:08:42.710Z,4.53
2022-12-27T20:11:14.613Z,4.52
2022-12-27T20:13:41.516Z,4.53
2022-12-27T20:16:10.887Z,4.54
2022-12-27T20:18:38.701Z,4.56
2022-12-27T20:21:05.962Z,4.55
2022-12-27T20:23:32.609Z,4.54
2022-12-27T20:25:59.143Z,4.53
2022-12-27T20:28:25.565Z,4.53
2022-12-27T20:30:52.040Z,4.54
2022-12-27T20:33:18.447Z,4.58
2022-12-27T20:35:45.471Z,4.60
2022-12-27T20:38:12.384Z,4.65
2022-12-27T20:40:40.501Z,4.65
2022-12-27T20:43:06.914Z,4.68
2022-12-27T20:45:34.241Z,4.67
2022-12-27T20:48:00.717Z,4.65
2022-12-27T20:50:27.152Z,4.62
2022-12-27T20:52:53.571Z,4.60
2022-12-27T20:55:19.923Z,4.61
2022-12-27T20:57:46.353Z,4.61
2022-12-27T21:00:14.455Z,4.61
2022-12-27T21:02:41.139Z,4.61
2022-12-27T21:05:08.351Z,4.61
2022-12-27T21:07:35.319Z,4.58
2022-12-27T21:10:02.107Z,4.56
2022-12-27T21:12:28.546Z,4.55
2022-12-27T21:14:54.974Z,4.55
2022-12-27T21:17:21.337Z,4.57
2022-12-27T21:19:47.758Z,4.58
2022-12-27T21:22:14.192Z,4.58
2022-12-27T21:24:40.636Z,4.59
2022-12-27T21:27:07.036Z,4.60
2022-12-27T21:29:33.451Z,4.58
2022-12-27T21:32:01.445Z,4.55
2022-12-27T21:34:28.041Z,4.52
2022-12-27T21:36:54.435Z,4.53
2022-12-27T21:39:20.834Z,4.51
2022-12-27T21:41:47.257Z,4.51
2022-12-27T21:44:13.668Z,4.52
2022-12-27T21:46:42.053Z,4.53
2022-12-27T21:49:12.358Z,4.54
2022-12-27T21:51:40.976Z,4.62
2022-12-27T21:54:08.070Z,4.69
2022-12-27T21:56:34.508Z,4.69
2022-12-27T21:59:02.919Z,4.74
2022-12-27T22:01:50.610Z,4.78
2022-12-27T22:04:17.924Z,4.82
2022-12-27T22:06:47.164Z,4.83
2022-12-27T22:09:14.233Z,4.82
2022-12-27T22:11:40.689Z,4.82
2022-12-27T22:14:07.202Z,4.81
2022-12-27T22:16:36.519Z,4.79
2022-12-27T22:19:06.137Z,4.78
2022-12-27T22:21:34.416Z,4.76
2022-12-27T22:24:02.273Z,4.74
2022-12-27T22:26:31.596Z,4.74
2022-12-27T22:28:58.096Z,4.72
2022-12-27T22:31:27.596Z,4.75
2022-12-27T22:33:54.063Z,4.77
2022-12-27T22:36:26.355Z,4.80
2022-12-27T22:38:55.839Z,4.89
2022-12-27T22:41:26.033Z,4.98
2022-12-27T22:44:04.371Z,5.08
2022-12-27T22:46:51.341Z,5.16
2022-12-27T22:49:18.113Z,5.20
2022-12-27T22:51:45.053Z,5.26
2022-12-27T22:54:11.452Z,5.33
2022-12-27T22:56:40.226Z,5.39
2022-12-27T22:59:08.345Z,5.44
2022-12-27T23:01:35.357Z,5.43
2022-12-27T23:04:05.129Z,5.45
2022-12-27T23:06:33.990Z,5.44
2022-12-27T23:09:01.194Z,5.44
2022-12-27T23:11:30.698Z,5.46
2022-12-27T23:14:00.426Z,5.47
2022-12-27T23:16:27.417Z,5.51
2022-12-27T23:18:54.264Z,5.57
2022-12-27T23:21:24.074Z,5.66
2022-12-27T23:23:51.960Z,5.75
2022-12-27T23:26:21.322Z,5.83
2022-12-27T23:28:51.296Z,5.88
2022-12-27T23:31:19.158Z,5.96
2022-12-27T23:33:45.783Z,6.01
2022-12-27T23:36:13.443Z,6.08
2022-12-27T23:38:44.256Z,6.16
2022-12-27T23:41:16.459Z,6.23
2022-12-27T23:43:58.528Z,6.28
2022-12-27T23:46:30.939Z,6.36
2022-12-27T23:48:59.125Z,6.43
2022-12-27T23:51:26.453Z,6.50
2022-12-27T23:53:52.935Z,6.56
2022-12-27T23:56:33.817Z,6.63
2022-12-27T23:59:02.991Z,6.67
